Barnesville, Georgia
Current Conditions -  °F | °C
As of 1:15 PM on Monday 26 Jan 2015 (Local Time) from KOPN Reporting Station
Overcast Overcast  
Wind Chill: 38°   Ceiling: 2100
Heat Index: 46°   Visibility: 10mi
Dew Point: 37°   Wind: 24mph
Humidity: 71%   Direction: 310°NW
Pressure: 29.86"   Gusts: 29mph
Location:  33.05°N, 84.16°W
Report Text: KOPN 261815Z AUTO 31021G25KT 10SM OVC021 08/03 A2986 RMK AO2
Loading
Personal Weather Stations






























Interactive Weather Map New forecast layout! Learn more

10-Day Weather Forecast

Advertisements
Track Severe Weather on mobile